Date,TemperatureHighF,TemperatureAvgF,TemperatureLowF,DewpointHighF,DewpointAvgF,DewpointLowF,HumidityHigh,HumidityAvg,HumidityLow,PressureMaxIn,PressureMinIn,WindSpeedMaxMPH,WindSpeedAvgMPH,GustSpeedMaxMPH,PrecipitationSumIn
2013-2-1,50.4,30.0,15.4,26.6,17.0,7.7,75,59,34,29.95,29.83,8,3,11,0.00
2013-2-2,55.4,31.9,18.5,25.8,17.2,6.0,74,56,27,30.03,29.94,7,3,8,0.00
2013-2-3,44.2,32.0,22.8,27.7,20.4,11.6,85,63,36,29.97,29.73,10,3,14,0.00
2013-2-4,48.6,27.3,18.9,31.2,20.8,12.0,84,76,49,29.81,29.73,7,3,11,0.00
2013-2-5,56.1,33.4,16.5,31.0,20.7,6.5,82,61,35,29.80,29.71,7,3,11,0.00
2013-2-6,53.4,34.8,24.1,28.7,19.7,12.6,71,55,31,29.73,29.65,19,4,29,0.00
2013-2-7,53.1,34.7,20.7,25.1,16.9,6.4,75,50,25,29.84,29.71,8,3,11,0.00
2013-2-8,47.3,37.0,27.1,26.7,20.2,12.7,65,50,38,29.78,29.49,18,6,30,0.01
2013-2-9,30.2,24.6,19.0,25.1,16.8,11.5,86,72,55,29.49,29.35,21,6,29,0.01
2013-2-10,33.4,23.6,19.6,23.0,17.5,13.2,85,78,54,29.60,29.46,14,6,19,0.04
2013-2-11,45.3,22.4,8.1,22.3,11.5,-4.3,85,65,28,29.67,29.58,8,3,13,0.05
2013-2-12,41.2,18.6,2.8,11.3,-0.3,-12.5,64,44,23,29.81,29.66,11,4,15,0.00
2013-2-13,45.7,21.6,4.8,20.9,6.5,-5.1,66,53,28,29.81,29.75,8,4,11,0.00
2013-2-14,50.4,27.5,8.6,21.8,9.4,-3.0,69,48,25,29.85,29.75,15,4,22,0.00
2013-2-15,41.9,29.1,10.6,11.8,1.7,-6.8,52,31,22,29.98,29.84,22,8,33,0.00
2013-2-16,48.2,30.2,14.7,21.7,8.3,-2.9,56,40,23,30.02,29.83,8,4,11,0.00
2013-2-17,56.7,34.8,19.4,20.0,8.8,3.0,49,35,21,29.83,29.50,10,4,33,0.02
2013-2-18,41.7,29.7,18.5,16.3,4.6,-7.4,62,36,21,29.77,29.51,21,6,33,0.00
2013-2-19,50.0,31.0,15.6,15.4,4.7,-8.6,45,33,22,29.76,29.45,9,4,12,0.00
2013-2-20,41.4,28.0,15.6,31.0,18.9,9.7,90,70,40,29.46,29.32,10,3,16,0.09
2013-2-21,53.8,24.5,9.1,28.5,15.1,0.5,85,68,32,29.55,29.34,17,5,27,0.00
2013-2-22,41.4,23.1,11.1,27.4,8.6,-4.9,72,54,31,29.66,29.55,18,6,32,0.02
2013-2-23,36.5,21.9,7.0,21.6,5.2,-9.0,85,49,27,29.95,29.43,14,4,23,0.00
2013-2-24,39.6,22.5,8.1,17.3,4.3,-4.4,72,47,21,29.58,29.43,17,5,23,0.00
2013-2-25,40.3,25.4,7.9,16.2,3.8,-8.9,56,39,27,29.70,29.58,9,4,12,0.00
2013-2-26,33.6,23.3,9.9,13.9,1.4,-10.3,62,40,25,29.72,29.52,20,8,32,0.02
2013-2-27,37.0,23.2,8.2,4.8,-2.7,-13.7,47,32,22,29.87,29.72,11,5,17,0.00
2013-2-28,48.4,29.3,10.8,14.4,2.0,-7.9,45,31,22,29.94,29.85,18,6,24,0.00